Arcola, Louisiana
Current Conditions -  °F | °C
As of 9:15 AM on Wednesday 26 Nov 2014 (Local Time) from KHDC Reporting Station
Clear Clear  
Wind Chill:   Ceiling: Unl
Heat Index:   Visibility: 10mi
Dew Point:   Wind: 5mph
Humidity: 71%   Direction: 160°SSE
Pressure: 30.3"   Gusts: NA
Location:  30.7896°N, 90.5314°W
Report Text: KHDC 261515Z AUTO 16004KT 10SM CLR 09/04 A3030 RMK AO2
Loading
Personal Weather Stations






























Interactive Weather Map New forecast layout! Learn more

10-Day Weather Forecast

Advertisements
Track Severe Weather on mobile